createdAt,value
2018-12-06T00:00:46.629Z,14.53
2018-12-06T00:03:14.548Z,14.67
2018-12-06T00:05:42.531Z,9.70
2018-12-06T00:08:18.303Z,11.10
2018-12-06T00:10:46.930Z,12.37
2018-12-06T00:13:14.860Z,11.70
2018-12-06T00:15:42.997Z,12.10
2018-12-06T00:18:11.092Z,13.77
2018-12-06T00:20:40.259Z,13.33
2018-12-06T00:23:08.520Z,11.20
2018-12-06T00:25:36.562Z,14.30
2018-12-06T00:28:04.779Z,13.27
2018-12-06T00:30:36.166Z,14.87
2018-12-06T00:33:04.785Z,14.23
2018-12-06T00:35:32.761Z,13.27
2018-12-06T00:38:00.870Z,11.07
2018-12-06T00:40:28.916Z,13.43
2018-12-06T00:42:57.189Z,10.67
2018-12-06T00:45:25.183Z,12.47
2018-12-06T00:47:53.227Z,14.17
2018-12-06T00:50:21.350Z,10.27
2018-12-06T00:52:50.236Z,13.77
2018-12-06T00:55:19.393Z,13.23
2018-12-06T00:57:48.063Z,13.90
2018-12-06T01:00:16.373Z,12.03
2018-12-06T01:02:44.576Z,12.17
2018-12-06T01:05:12.842Z,9.80
2018-12-06T01:07:41.485Z,11.40
2018-12-06T01:10:09.477Z,12.67
2018-12-06T01:12:37.631Z,13.33
2018-12-06T01:15:06.878Z,10.53
2018-12-06T01:17:34.883Z,12.73
2018-12-06T01:20:02.861Z,10.83
2018-12-06T01:22:31.093Z,12.13
2018-12-06T01:24:59.158Z,13.20
2018-12-06T01:27:28.280Z,12.80
2018-12-06T01:29:56.633Z,11.20
2018-12-06T01:32:24.672Z,11.57
2018-12-06T01:34:52.645Z,12.80
2018-12-06T01:37:21.204Z,16.90
2018-12-06T01:39:49.212Z,12.07
2018-12-06T01:42:17.176Z,14.13
2018-12-06T01:44:45.322Z,11.97
2018-12-06T01:47:13.267Z,13.20
2018-12-06T01:49:41.361Z,12.53
2018-12-06T01:52:09.306Z,15.00
2018-12-06T01:54:37.250Z,13.77
2018-12-06T01:57:05.097Z,13.43
2018-12-06T01:59:33.122Z,10.53
2018-12-06T02:02:01.192Z,15.17
2018-12-06T02:04:29.944Z,11.03
2018-12-06T02:06:57.949Z,11.63
2018-12-06T02:09:25.967Z,11.73
2018-12-06T02:11:53.949Z,13.87
2018-12-06T02:14:21.922Z,10.90
2018-12-06T02:16:49.933Z,11.07
2018-12-06T02:19:17.824Z,12.53
2018-12-06T02:21:45.773Z,9.83
2018-12-06T11:51:59.107Z,14.90
2018-12-06T11:54:27.176Z,12.87
2018-12-06T11:56:55.870Z,17.50
2018-12-06T11:59:27.149Z,19.17
2018-12-06T12:01:55.263Z,16.03
2018-12-06T12:04:24.532Z,16.07
2018-12-06T12:06:52.696Z,16.07
2018-12-06T12:09:21.125Z,20.40
2018-12-06T12:11:50.309Z,21.27
2018-12-06T12:14:30.215Z,20.50
2018-12-06T12:16:58.977Z,18.83
2018-12-06T12:19:29.275Z,18.40
2018-12-06T12:21:57.420Z,18.60
2018-12-06T12:24:26.493Z,18.73
2018-12-06T12:27:00.974Z,21.60
2018-12-06T12:29:29.069Z,18.93
2018-12-06T12:31:57.892Z,22.87
2018-12-06T12:34:26.157Z,20.20
2018-12-06T12:36:54.501Z,16.67
2018-12-06T12:39:23.300Z,18.63
2018-12-06T12:41:52.160Z,26.33
2018-12-06T12:44:20.165Z,16.73
2018-12-06T12:46:48.279Z,17.33
2018-12-06T12:49:16.386Z,17.60
2018-12-06T12:51:44.494Z,13.73
2018-12-06T12:54:14.968Z,20.47
2018-12-06T12:56:43.282Z,16.07
2018-12-06T12:59:12.945Z,14.93
2018-12-06T13:01:41.661Z,18.10
2018-12-06T13:04:09.751Z,19.53
2018-12-06T13:06:37.974Z,22.10
2018-12-06T13:09:07.560Z,17.17
2018-12-06T13:11:36.404Z,20.30
2018-12-06T13:14:05.131Z,15.00
2018-12-06T13:16:33.367Z,20.20
2018-12-06T13:19:04.528Z,13.77
2018-12-06T13:21:32.504Z,15.43
2018-12-06T13:24:00.502Z,15.23
2018-12-06T13:26:28.481Z,14.17
2018-12-06T13:28:56.603Z,17.40
2018-12-06T13:31:24.716Z,16.23
2018-12-06T13:33:52.936Z,16.27
2018-12-06T13:36:20.977Z,11.93
2018-12-06T13:38:49.240Z,16.57
2018-12-06T13:41:17.566Z,14.97
2018-12-06T13:43:45.780Z,13.20
2018-12-06T13:46:14.834Z,14.77
2018-12-06T13:48:43.244Z,17.27
2018-12-06T13:51:15.179Z,13.70
2018-12-06T13:53:45.348Z,15.97
2018-12-06T13:56:13.483Z,13.07
2018-12-06T13:58:41.552Z,15.37
2018-12-06T14:01:09.804Z,12.17
2018-12-06T14:03:38.058Z,20.10
2018-12-06T14:06:06.445Z,11.87
2018-12-06T14:08:34.748Z,11.47
2018-12-06T14:11:03.113Z,11.73
2018-12-06T14:13:32.163Z,16.03
2018-12-06T14:16:00.836Z,13.80
2018-12-06T14:18:31.767Z,15.37
2018-12-06T14:21:00.170Z,18.50
2018-12-06T14:23:28.269Z,20.97
2018-12-06T14:25:57.809Z,15.10
2018-12-06T14:28:26.705Z,20.20
2018-12-06T14:30:55.704Z,22.63
2018-12-06T14:33:25.769Z,19.23
2018-12-06T14:35:53.857Z,19.03
2018-12-06T14:38:22.382Z,19.67
2018-12-06T14:40:50.957Z,24.17
2018-12-06T14:43:18.937Z,30.07
2018-12-06T14:45:47.442Z,24.57
2018-12-06T14:48:15.829Z,26.93
2018-12-06T14:50:44.044Z,28.73
2018-12-06T14:53:12.735Z,25.07
2018-12-06T14:55:41.913Z,27.10
2018-12-06T14:58:11.456Z,25.67
2018-12-06T15:00:39.404Z,23.27
2018-12-06T15:03:08.971Z,25.67
2018-12-06T15:05:37.006Z,30.93
2018-12-06T15:08:05.057Z,31.67
2018-12-06T15:10:33.364Z,26.53
2018-12-06T15:13:01.527Z,30.07
2018-12-06T15:15:30.253Z,30.17
2018-12-06T15:17:58.307Z,32.83
2018-12-06T15:20:27.107Z,40.77
2018-12-06T15:22:55.715Z,33.73
2018-12-06T15:25:25.053Z,31.27
2018-12-06T15:27:54.434Z,30.47
2018-12-06T15:30:22.510Z,29.37
2018-12-06T15:32:54.004Z,40.97
2018-12-06T15:35:22.147Z,32.30
2018-12-06T15:37:50.093Z,32.37
2018-12-06T15:40:18.194Z,29.20
2018-12-06T15:42:49.743Z,32.50
2018-12-06T15:45:18.864Z,28.57
2018-12-06T15:47:53.182Z,36.33
2018-12-06T15:50:21.273Z,41.20
2018-12-06T15:52:49.440Z,39.33
2018-12-06T15:55:17.624Z,29.17
2018-12-06T15:57:45.821Z,59.80
2018-12-06T16:00:17.274Z,54.43
2018-12-06T16:02:51.294Z,39.57
2018-12-06T16:05:19.615Z,58.03
2018-12-06T16:07:48.314Z,49.70
2018-12-06T16:10:16.325Z,35.73
2018-12-06T16:12:45.153Z,38.10
2018-12-06T16:15:13.665Z,44.43
2018-12-06T16:17:42.652Z,45.07
2018-12-06T16:20:11.074Z,52.77
2018-12-06T16:22:39.360Z,50.03
2018-12-06T16:25:07.897Z,44.73
2018-12-06T16:27:36.139Z,53.43
2018-12-06T16:30:10.157Z,47.13
2018-12-06T16:32:39.184Z,68.57
2018-12-06T16:35:07.656Z,41.63
2018-12-06T16:37:36.088Z,32.57
2018-12-06T16:40:05.352Z,39.07
2018-12-06T16:42:34.587Z,46.40
2018-12-06T16:45:03.290Z,45.23
2018-12-06T16:47:31.419Z,52.17
2018-12-06T16:49:59.301Z,59.30
2018-12-06T16:52:27.355Z,50.40
2018-12-06T16:54:55.315Z,52.03
2018-12-06T16:57:23.664Z,55.40
2018-12-06T16:59:51.888Z,53.20
2018-12-06T17:02:20.152Z,71.30
2018-12-06T17:04:48.616Z,93.70
2018-12-06T17:07:16.870Z,85.07
2018-12-06T17:09:44.956Z,87.87
2018-12-06T17:12:14.257Z,91.23
2018-12-06T17:14:42.254Z,71.40
2018-12-06T17:17:10.512Z,62.60
2018-12-06T17:19:38.766Z,62.20
2018-12-06T17:22:07.029Z,60.53
2018-12-06T17:24:35.155Z,64.43
2018-12-06T17:27:03.567Z,73.67
2018-12-06T17:29:34.487Z,67.37
2018-12-06T17:32:02.718Z,79.97
2018-12-06T17:34:30.806Z,77.13
2018-12-06T17:36:58.735Z,56.03
2018-12-06T17:39:26.646Z,67.67
2018-12-06T17:41:54.816Z,76.20
2018-12-06T17:44:23.611Z,91.23
2018-12-06T17:46:51.493Z,84.73
2018-12-06T17:49:19.399Z,77.17
2018-12-06T17:51:47.504Z,86.23
2018-12-06T17:54:15.556Z,67.40
2018-12-06T17:56:43.949Z,70.77
2018-12-06T17:59:12.175Z,81.17
2018-12-06T18:01:40.186Z,65.20
2018-12-06T18:04:08.045Z,49.23
2018-12-06T18:06:36.080Z,44.70
2018-12-06T18:09:05.701Z,46.77
2018-12-06T18:11:34.200Z,40.37
2018-12-06T18:14:02.155Z,39.37
2018-12-06T18:16:30.209Z,42.13
2018-12-06T18:18:59.183Z,39.67
2018-12-06T18:21:30.179Z,35.90
2018-12-06T18:23:58.905Z,42.87
2018-12-06T18:26:27.181Z,35.30
2018-12-06T18:28:55.501Z,35.53
2018-12-06T18:31:23.548Z,38.60
2018-12-06T18:33:51.567Z,41.10
2018-12-06T18:36:20.721Z,46.50
2018-12-06T18:38:49.397Z,45.57
2018-12-06T18:41:17.526Z,39.10
2018-12-06T18:43:45.897Z,44.97
2018-12-06T18:46:14.612Z,49.70
2018-12-06T18:48:42.956Z,53.27
2018-12-06T18:51:11.156Z,46.63
2018-12-06T18:53:40.709Z,52.50
2018-12-06T18:56:08.892Z,50.97
2018-12-06T18:58:38.990Z,48.93
2018-12-06T19:01:07.387Z,53.20
2018-12-06T19:03:35.477Z,45.37
2018-12-06T19:06:04.604Z,33.60
2018-12-06T19:08:32.910Z,46.97
2018-12-06T19:11:01.723Z,46.77
2018-12-06T19:13:30.102Z,42.47
2018-12-06T19:15:58.410Z,49.40
2018-12-06T19:18:26.773Z,37.33
2018-12-06T19:20:54.798Z,37.97
2018-12-06T19:23:22.792Z,41.10
2018-12-06T19:25:51.774Z,42.97
2018-12-06T19:28:20.330Z,42.50
2018-12-06T19:30:48.527Z,47.10
2018-12-06T19:33:16.989Z,43.07
2018-12-06T19:35:45.460Z,30.90
2018-12-06T19:38:15.585Z,40.53
2018-12-06T19:40:45.382Z,42.67
2018-12-06T19:43:14.273Z,37.47
2018-12-06T19:45:42.876Z,42.13
2018-12-06T19:48:13.854Z,43.17
2018-12-06T19:50:42.868Z,48.20
2018-12-06T19:53:10.887Z,41.57
2018-12-06T19:55:39.015Z,51.70
2018-12-06T19:58:07.292Z,51.37
2018-12-06T20:00:35.388Z,47.37
2018-12-06T20:03:04.804Z,43.53
2018-12-06T20:05:33.258Z,36.60
2018-12-06T20:08:02.756Z,51.37
2018-12-06T20:10:30.803Z,50.67
2018-12-06T20:13:01.128Z,49.60
2018-12-06T20:15:30.939Z,44.20
2018-12-06T20:17:59.141Z,49.87
2018-12-06T20:20:27.358Z,49.80
2018-12-06T20:22:55.469Z,49.93
2018-12-06T20:25:23.665Z,58.50
2018-12-06T20:27:53.116Z,54.03
2018-12-06T20:30:23.950Z,61.37
2018-12-06T20:32:52.251Z,61.93
2018-12-06T20:35:20.559Z,57.23
2018-12-06T20:37:49.205Z,69.80
2018-12-06T20:40:18.812Z,53.33
2018-12-06T20:42:46.817Z,58.03
2018-12-06T20:45:15.647Z,39.57
2018-12-06T20:47:52.442Z,43.63
2018-12-06T20:50:21.097Z,39.53
2018-12-06T20:52:50.952Z,57.53
2018-12-06T20:55:22.505Z,27.80
2018-12-06T20:57:59.799Z,30.23
2018-12-06T21:00:43.386Z,30.70
2018-12-06T21:03:19.216Z,28.90
2018-12-06T21:05:58.483Z,26.30
2018-12-06T21:08:39.444Z,26.83
2018-12-06T21:14:02.268Z,22.13
2018-12-06T21:16:39.061Z,30.13
2018-12-06T21:19:23.672Z,23.87
2018-12-06T21:25:07.326Z,30.50
2018-12-06T21:27:36.403Z,28.87
2018-12-06T21:30:05.632Z,31.40
2018-12-06T21:32:35.151Z,30.83
2018-12-06T21:35:03.387Z,27.40
2018-12-06T21:37:31.427Z,31.30
2018-12-06T21:39:59.304Z,28.10
2018-12-06T21:42:27.428Z,31.13
2018-12-06T21:44:55.360Z,29.60
2018-12-06T21:47:25.131Z,25.63
2018-12-06T21:49:53.656Z,33.27
2018-12-06T21:52:21.708Z,30.10
2018-12-06T21:54:49.852Z,26.77
2018-12-06T21:57:18.506Z,29.30
2018-12-06T21:59:47.273Z,31.70
2018-12-06T22:02:31.002Z,31.97
2018-12-06T22:04:59.009Z,31.87
2018-12-06T22:07:26.965Z,32.93
2018-12-06T22:09:57.796Z,32.77
2018-12-06T22:12:25.883Z,30.30
2018-12-06T22:14:53.909Z,39.57
2018-12-06T22:17:22.071Z,37.80
2018-12-06T22:19:50.092Z,33.67
2018-12-06T22:22:18.131Z,35.47
2018-12-06T22:24:46.061Z,32.93
2018-12-06T22:27:14.238Z,41.77
2018-12-06T22:29:42.208Z,40.90
2018-12-06T22:32:10.328Z,43.40
2018-12-06T22:34:39.177Z,36.00
2018-12-06T22:37:08.620Z,33.43
2018-12-06T22:39:37.453Z,36.90
2018-12-06T22:42:05.623Z,33.10
2018-12-06T22:44:33.669Z,34.20
2018-12-06T22:47:01.992Z,38.47
2018-12-06T22:49:31.164Z,32.70
2018-12-06T22:51:59.415Z,40.37
2018-12-06T22:54:27.604Z,59.33
2018-12-06T22:56:55.941Z,59.63
2018-12-06T22:59:24.052Z,56.80
2018-12-06T23:01:52.335Z,48.63
2018-12-06T23:04:20.443Z,50.93
2018-12-06T23:06:48.979Z,58.30
2018-12-06T23:09:17.349Z,53.60
2018-12-06T23:11:45.920Z,49.47
2018-12-06T23:14:14.149Z,54.33
2018-12-06T23:16:45.586Z,50.30
2018-12-06T23:19:13.576Z,47.70
2018-12-06T23:21:41.907Z,45.83
2018-12-06T23:24:09.928Z,49.63
2018-12-06T23:26:44.529Z,45.60
2018-12-06T23:29:12.778Z,45.37
2018-12-06T23:31:40.848Z,72.47
2018-12-06T23:34:09.140Z,64.67
2018-12-06T23:36:37.134Z,77.60
2018-12-06T23:39:07.917Z,56.40
2018-12-06T23:41:36.029Z,59.43
2018-12-06T23:44:05.144Z,53.23
2018-12-06T23:46:33.557Z,36.57
2018-12-06T23:49:01.700Z,31.43
2018-12-06T23:51:37.318Z,31.50
2018-12-06T23:54:05.333Z,27.07
2018-12-06T23:56:33.382Z,25.97
2018-12-06T23:59:01.625Z,23.87
